Airfield :
LOGIN :

Register | Disclaimer

   EN    FR    IT 

 










Legend :    VFR   Marginal VFR   IFR   Intensive IFR   Very Intensive IFR
Visi :
Ceiling :
>= 8 km
>= 3000ft
5 to 8 km
1000 to 3000 ft
1500m to 5 km
500 to 1000 ft
800 to 1500m
200 to 500 ft
< 800m
< 200 ft
Symbols :   Thunderstorms  Fog  Heavy snow  Heavy precipitations  Wind > 20 kt
SIGMETs :     Misc.  Thunderstorms  Icing  Turbulence  Mountain Waves  Volcanic Ashes






- Airport Elevation : 309 ft
- IATA code : FNI


LFTW - Nîmes Garons

CURRENT METAR :
  • 090500Z AUTO VRB02KT 9000 NSC 20/19 Q1017 NOSIG

EXPIRED METARs :
  • 090430Z AUTO 34003KT 9000 3500 NSC 19/18 Q1017 NOSIG
  • 090400Z AUTO 03002KT 5000 BR NSC 19/19 Q1017 TEMPO 2000 BR BKN006
  • 090330Z AUTO VRB03KT 4600 BR NSC 19/18 Q1017 TEMPO BKN006 BECMG 9999 NSW
  • 090300Z AUTO 35003KT 5000 BR NSC 20/19 Q1017 TEMPO 2000 BR BKN006
  • 090230Z AUTO 35004KT 4300 BR NSC 19/19 Q1017 TEMPO 2000 BR BKN006

TAF TAF LFTW
Valid from the 09 at 03:00 until the 10 at 03:00 UTC


090200Z 0903/1003 06003KT CAVOK
TEMPO 0903/0905 2000 BR BKN006
BECMG 0910/0912 18010KT
BECMG 0920/0922 VRB03KT
TEMPO 0922/1003 4000 BR BKN006



MET'MAP, your aeronautical weather chart ! - Copyright ORBIFLY December 2007 - Disclaimer

ORBIFLY MET'MAP TEAM :

Programming & Development : Alexandra Zaïnal
Concept & original design : Baudouin d'Aumeries
Assistance for programming : Marc-Olivier Méhu
Technical & hardware support : Manuel Goepfert

Contact : metmap@orbifly.com




SOURCES & CREDITS :

   NOAA